sensor_id;sensor_type;location;lat;lon;timestamp;pressure;altitude;pressure_sealevel;temperature;humidity
52653;BME280;39353;42.864;12.014;2023-05-14T00:00:01;97103.42;;;23.04;53.40
52653;BME280;39353;42.864;12.014;2023-05-14T00:02:28;97098.92;;;23.04;53.27
52653;BME280;39353;42.864;12.014;2023-05-14T00:04:57;97104.77;;;23.03;53.49
52653;BME280;39353;42.864;12.014;2023-05-14T00:07:24;97111.39;;;23.03;53.37
52653;BME280;39353;42.864;12.014;2023-05-14T00:09:57;97106.61;;;23.02;53.38
52653;BME280;39353;42.864;12.014;2023-05-14T00:12:26;97111.77;;;23.02;53.41
52653;BME280;39353;42.864;12.014;2023-05-14T00:14:53;97115.02;;;23.01;53.40
52653;BME280;39353;42.864;12.014;2023-05-14T00:17:19;97119.49;;;23.00;53.48
52653;BME280;39353;42.864;12.014;2023-05-14T00:19:46;97122.73;;;23.00;53.44
52653;BME280;39353;42.864;12.014;2023-05-14T00:22:13;97123.66;;;23.00;53.45
52653;BME280;39353;42.864;12.014;2023-05-14T00:24:42;97119.66;;;23.00;53.48
52653;BME280;39353;42.864;12.014;2023-05-14T00:27:09;97117.84;;;22.99;53.42
52653;BME280;39353;42.864;12.014;2023-05-14T00:29:37;97112.88;;;22.97;53.52
52653;BME280;39353;42.864;12.014;2023-05-14T00:32:04;97115.41;;;22.98;53.46
52653;BME280;39353;42.864;12.014;2023-05-14T00:34:31;97107.51;;;22.96;53.47
52653;BME280;39353;42.864;12.014;2023-05-14T00:36:58;97102.34;;;22.96;53.41
52653;BME280;39353;42.864;12.014;2023-05-14T00:39:26;97094.52;;;22.96;53.38
52653;BME280;39353;42.864;12.014;2023-05-14T00:41:53;97084.94;;;22.95;53.44
52653;BME280;39353;42.864;12.014;2023-05-14T00:44:21;97076.11;;;22.94;53.42
52653;BME280;39353;42.864;12.014;2023-05-14T00:46:48;97080.39;;;22.95;53.32
52653;BME280;39353;42.864;12.014;2023-05-14T00:49:16;97080.42;;;22.94;53.37
52653;BME280;39353;42.864;12.014;2023-05-14T00:51:44;97079.85;;;22.92;53.50
52653;BME280;39353;42.864;12.014;2023-05-14T00:54:15;97078.92;;;22.91;53.53
52653;BME280;39353;42.864;12.014;2023-05-14T00:56:47;97077.48;;;22.91;53.51
52653;BME280;39353;42.864;12.014;2023-05-14T00:59:14;97078.08;;;22.91;53.51
52653;BME280;39353;42.864;12.014;2023-05-14T01:01:41;97079.78;;;22.91;53.48
52653;BME280;39353;42.864;12.014;2023-05-14T01:04:10;97080.21;;;22.89;53.48
52653;BME280;39353;42.864;12.014;2023-05-14T01:07:10;97082.23;;;22.89;53.58
52653;BME280;39353;42.864;12.014;2023-05-14T01:12:35;97069.48;;;22.86;53.67
52653;BME280;39353;42.864;12.014;2023-05-14T01:17:42;97066.65;;;22.83;53.74
52653;BME280;39353;42.864;12.014;2023-05-14T01:20:12;97060.85;;;22.83;53.67
52653;BME280;39353;42.864;12.014;2023-05-14T01:22:40;97057.16;;;22.82;53.73
52653;BME280;39353;42.864;12.014;2023-05-14T01:25:07;97047.33;;;22.82;53.73
52653;BME280;39353;42.864;12.014;2023-05-14T01:27:58;97043.98;;;22.82;53.63
52653;BME280;39353;42.864;12.014;2023-05-14T01:30:36;97035.81;;;22.81;53.72
52653;BME280;39353;42.864;12.014;2023-05-14T01:33:10;97032.63;;;22.80;53.67
52653;BME280;39353;42.864;12.014;2023-05-14T01:35:39;97040.29;;;22.80;53.68
52653;BME280;39353;42.864;12.014;2023-05-14T01:38:10;97045.86;;;22.80;53.67
52653;BME280;39353;42.864;12.014;2023-05-14T01:40:40;97042.34;;;22.79;53.70
52653;BME280;39353;42.864;12.014;2023-05-14T01:46:30;97033.80;;;22.78;53.61
52653;BME280;39353;42.864;12.014;2023-05-14T01:52:32;97026.96;;;22.77;53.74
52653;BME280;39353;42.864;12.014;2023-05-14T01:58:17;97025.59;;;22.76;53.72
52653;BME280;39353;42.864;12.014;2023-05-14T02:04:18;97020.26;;;22.75;53.63
52653;BME280;39353;42.864;12.014;2023-05-14T02:06:47;97018.67;;;22.75;53.88
52653;BME280;39353;42.864;12.014;2023-05-14T02:09:14;97014.39;;;22.74;53.81
52653;BME280;39353;42.864;12.014;2023-05-14T02:11:45;97012.87;;;22.75;53.68
52653;BME280;39353;42.864;12.014;2023-05-14T02:14:15;97006.57;;;22.74;53.72
52653;BME280;39353;42.864;12.014;2023-05-14T02:16:43;97005.73;;;22.73;53.76
52653;BME280;39353;42.864;12.014;2023-05-14T02:19:10;97013.28;;;22.73;53.79
52653;BME280;39353;42.864;12.014;2023-05-14T02:21:38;97016.38;;;22.72;53.64
52653;BME280;39353;42.864;12.014;2023-05-14T02:24:07;97015.55;;;22.72;53.71
52653;BME280;39353;42.864;12.014;2023-05-14T02:26:34;97016.31;;;22.71;53.67
52653;BME280;39353;42.864;12.014;2023-05-14T02:29:07;97011.27;;;22.71;53.63
52653;BME280;39353;42.864;12.014;2023-05-14T02:31:34;97010.45;;;22.71;53.72
52653;BME280;39353;42.864;12.014;2023-05-14T02:34:02;97004.49;;;22.71;53.69
52653;BME280;39353;42.864;12.014;2023-05-14T02:36:32;97001.41;;;22.70;53.71
52653;BME280;39353;42.864;12.014;2023-05-14T02:39:00;96999.48;;;22.69;53.70
52653;BME280;39353;42.864;12.014;2023-05-14T02:41:29;96993.40;;;22.69;53.75
52653;BME280;39353;42.864;12.014;2023-05-14T02:43:57;96993.08;;;22.69;53.76
52653;BME280;39353;42.864;12.014;2023-05-14T02:46:24;96991.04;;;22.68;53.77
52653;BME280;39353;42.864;12.014;2023-05-14T02:48:52;96992.67;;;22.68;53.78
52653;BME280;39353;42.864;12.014;2023-05-14T02:51:19;96991.53;;;22.68;53.70
52653;BME280;39353;42.864;12.014;2023-05-14T02:53:47;96991.05;;;22.69;53.75
52653;BME280;39353;42.864;12.014;2023-05-14T02:56:14;96990.66;;;22.68;53.73
52653;BME280;39353;42.864;12.014;2023-05-14T02:58:41;96987.27;;;22.68;53.70
52653;BME280;39353;42.864;12.014;2023-05-14T03:01:09;96980.55;;;22.68;53.78
52653;BME280;39353;42.864;12.014;2023-05-14T03:03:36;96976.58;;;22.67;53.86
52653;BME280;39353;42.864;12.014;2023-05-14T03:06:05;96968.27;;;22.66;53.69
52653;BME280;39353;42.864;12.014;2023-05-14T03:08:34;96972.69;;;22.66;53.74
52653;BME280;39353;42.864;12.014;2023-05-14T03:11:06;96971.10;;;22.66;53.87
52653;BME280;39353;42.864;12.014;2023-05-14T03:13:34;96972.08;;;22.65;53.63
52653;BME280;39353;42.864;12.014;2023-05-14T03:16:04;96970.45;;;22.64;53.78
52653;BME280;39353;42.864;12.014;2023-05-14T03:18:34;96966.28;;;22.64;53.71
52653;BME280;39353;42.864;12.014;2023-05-14T03:21:05;96968.36;;;22.64;53.81
52653;BME280;39353;42.864;12.014;2023-05-14T03:23:39;96963.92;;;22.63;53.71
52653;BME280;39353;42.864;12.014;2023-05-14T03:26:06;96957.62;;;22.63;53.80
52653;BME280;39353;42.864;12.014;2023-05-14T03:28:34;96957.95;;;22.62;53.71
52653;BME280;39353;42.864;12.014;2023-05-14T03:31:03;96957.58;;;22.63;53.80
52653;BME280;39353;42.864;12.014;2023-05-14T03:33:32;96955.20;;;22.62;53.66
52653;BME280;39353;42.864;12.014;2023-05-14T03:36:00;96958.66;;;22.62;53.70
52653;BME280;39353;42.864;12.014;2023-05-14T03:38:27;96955.58;;;22.62;53.82
52653;BME280;39353;42.864;12.014;2023-05-14T03:41:00;96948.29;;;22.60;53.64
52653;BME280;39353;42.864;12.014;2023-05-14T03:43:33;96947.00;;;22.62;53.68
52653;BME280;39353;42.864;12.014;2023-05-14T03:46:03;96946.97;;;22.63;53.78
52653;BME280;39353;42.864;12.014;2023-05-14T03:48:32;96946.89;;;22.62;53.83
52653;BME280;39353;42.864;12.014;2023-05-14T03:51:00;96952.95;;;22.62;53.79
52653;BME280;39353;42.864;12.014;2023-05-14T03:53:28;96958.36;;;22.61;53.70
52653;BME280;39353;42.864;12.014;2023-05-14T03:55:55;96958.61;;;22.60;53.80
52653;BME280;39353;42.864;12.014;2023-05-14T03:58:22;96956.75;;;22.60;53.75
52653;BME280;39353;42.864;12.014;2023-05-14T04:00:51;96959.92;;;22.60;53.85
52653;BME280;39353;42.864;12.014;2023-05-14T04:03:20;96961.11;;;22.59;53.88
52653;BME280;39353;42.864;12.014;2023-05-14T04:15:36;96943.97;;;22.57;53.77
52653;BME280;39353;42.864;12.014;2023-05-14T04:21:47;96936.30;;;22.56;53.83
52653;BME280;39353;42.864;12.014;2023-05-14T04:27:48;96944.82;;;22.56;53.95
52653;BME280;39353;42.864;12.014;2023-05-14T04:33:34;96937.23;;;22.53;53.86
52653;BME280;39353;42.864;12.014;2023-05-14T04:39:37;96952.92;;;22.52;53.95
52653;BME280;39353;42.864;12.014;2023-05-14T04:45:23;96958.48;;;22.52;54.00
52653;BME280;39353;42.864;12.014;2023-05-14T04:51:24;96962.38;;;22.52;53.84
52653;BME280;39353;42.864;12.014;2023-05-14T04:57:10;96976.05;;;22.52;53.83
52653;BME280;39353;42.864;12.014;2023-05-14T04:59:41;96977.69;;;22.52;53.87
52653;BME280;39353;42.864;12.014;2023-05-14T05:02:07;96977.63;;;22.51;53.86
52653;BME280;39353;42.864;12.014;2023-05-14T05:04:35;96976.14;;;22.51;53.93
52653;BME280;39353;42.864;12.014;2023-05-14T05:07:03;96975.27;;;22.50;54.08
52653;BME280;39353;42.864;12.014;2023-05-14T05:09:38;96982.05;;;22.51;53.98
52653;BME280;39353;42.864;12.014;2023-05-14T05:12:05;96976.91;;;22.52;53.85
52653;BME280;39353;42.864;12.014;2023-05-14T05:14:33;96978.00;;;22.50;53.85
52653;BME280;39353;42.864;12.014;2023-05-14T05:17:00;96981.44;;;22.51;53.78
52653;BME280;39353;42.864;12.014;2023-05-14T05:19:30;96981.39;;;22.51;53.84
52653;BME280;39353;42.864;12.014;2023-05-14T05:21:57;96987.45;;;22.51;53.75
52653;BME280;39353;42.864;12.014;2023-05-14T05:24:25;96988.95;;;22.49;53.92
52653;BME280;39353;42.864;12.014;2023-05-14T05:26:52;96985.51;;;22.49;53.93
52653;BME280;39353;42.864;12.014;2023-05-14T05:29:23;96983.20;;;22.49;53.81
52653;BME280;39353;42.864;12.014;2023-05-14T05:31:53;96981.23;;;22.48;53.89
52653;BME280;39353;42.864;12.014;2023-05-14T05:34:19;96979.26;;;22.48;53.89
52653;BME280;39353;42.864;12.014;2023-05-14T05:36:47;96978.23;;;22.48;53.99
52653;BME280;39353;42.864;12.014;2023-05-14T05:39:13;96977.67;;;22.48;53.88
52653;BME280;39353;42.864;12.014;2023-05-14T05:41:41;96972.92;;;22.48;53.94
52653;BME280;39353;42.864;12.014;2023-05-14T05:44:08;96970.18;;;22.48;53.93
52653;BME280;39353;42.864;12.014;2023-05-14T05:46:35;96973.35;;;22.47;53.82
52653;BME280;39353;42.864;12.014;2023-05-14T05:49:01;96973.95;;;22.47;53.84
52653;BME280;39353;42.864;12.014;2023-05-14T05:51:29;96977.22;;;22.47;53.97
52653;BME280;39353;42.864;12.014;2023-05-14T05:53:55;96985.54;;;22.47;53.98
52653;BME280;39353;42.864;12.014;2023-05-14T05:56:22;96986.45;;;22.46;53.97
52653;BME280;39353;42.864;12.014;2023-05-14T05:58:49;96984.85;;;22.45;53.90
52653;BME280;39353;42.864;12.014;2023-05-14T06:01:17;96991.00;;;22.44;53.90
52653;BME280;39353;42.864;12.014;2023-05-14T06:03:44;96994.38;;;22.43;54.04
52653;BME280;39353;42.864;12.014;2023-05-14T06:06:11;96994.51;;;22.44;54.03
52653;BME280;39353;42.864;12.014;2023-05-14T06:08:37;96993.58;;;22.44;53.93
52653;BME280;39353;42.864;12.014;2023-05-14T06:11:05;96990.36;;;22.44;53.94
52653;BME280;39353;42.864;12.014;2023-05-14T06:13:31;96984.88;;;22.43;53.97
52653;BME280;39353;42.864;12.014;2023-05-14T06:15:59;96980.77;;;22.43;53.94
52653;BME280;39353;42.864;12.014;2023-05-14T06:18:25;96977.94;;;22.44;53.94
52653;BME280;39353;42.864;12.014;2023-05-14T06:20:56;96982.48;;;22.44;53.96
52653;BME280;39353;42.864;12.014;2023-05-14T06:23:25;96977.71;;;22.44;53.96
52653;BME280;39353;42.864;12.014;2023-05-14T06:25:52;96976.91;;;22.44;53.87
52653;BME280;39353;42.864;12.014;2023-05-14T06:28:19;96980.68;;;22.45;53.99
52653;BME280;39353;42.864;12.014;2023-05-14T06:30:48;96991.00;;;22.44;54.01
52653;BME280;39353;42.864;12.014;2023-05-14T06:33:15;96993.09;;;22.44;53.97
52653;BME280;39353;42.864;12.014;2023-05-14T06:35:43;96990.20;;;22.44;53.99
52653;BME280;39353;42.864;12.014;2023-05-14T06:38:11;96991.17;;;22.44;53.96
52653;BME280;39353;42.864;12.014;2023-05-14T06:40:38;96986.20;;;22.44;53.94
52653;BME280;39353;42.864;12.014;2023-05-14T06:43:05;96980.95;;;22.44;53.89
52653;BME280;39353;42.864;12.014;2023-05-14T06:45:32;96974.66;;;22.44;53.97
52653;BME280;39353;42.864;12.014;2023-05-14T06:48:05;96978.27;;;22.44;53.94
52653;BME280;39353;42.864;12.014;2023-05-14T06:50:32;96978.81;;;22.44;53.90
52653;BME280;39353;42.864;12.014;2023-05-14T06:52:58;96982.52;;;22.43;53.96
52653;BME280;39353;42.864;12.014;2023-05-14T06:55:26;96984.66;;;22.44;53.96
52653;BME280;39353;42.864;12.014;2023-05-14T06:57:53;96988.58;;;22.43;53.95
52653;BME280;39353;42.864;12.014;2023-05-14T07:00:20;96986.49;;;22.43;53.97
52653;BME280;39353;42.864;12.014;2023-05-14T07:02:47;96978.66;;;22.42;54.11
52653;BME280;39353;42.864;12.014;2023-05-14T07:05:16;96978.11;;;22.42;53.99
52653;BME280;39353;42.864;12.014;2023-05-14T07:07:42;96979.27;;;22.43;53.94
52653;BME280;39353;42.864;12.014;2023-05-14T07:10:10;96980.05;;;22.46;54.09
52653;BME280;39353;42.864;12.014;2023-05-14T07:12:40;96980.63;;;22.45;53.40
52653;BME280;39353;42.864;12.014;2023-05-14T07:15:07;96980.71;;;22.43;53.65
52653;BME280;39353;42.864;12.014;2023-05-14T07:17:36;96980.61;;;22.44;53.69
52653;BME280;39353;42.864;12.014;2023-05-14T07:20:08;96977.48;;;22.46;53.70
52653;BME280;39353;42.864;12.014;2023-05-14T07:22:36;96981.52;;;22.46;53.63
52653;BME280;39353;42.864;12.014;2023-05-14T07:25:05;96986.73;;;22.47;53.84
52653;BME280;39353;42.864;12.014;2023-05-14T07:27:34;96994.16;;;22.46;53.83
52653;BME280;39353;42.864;12.014;2023-05-14T07:30:02;96996.08;;;22.46;53.58
52653;BME280;39353;42.864;12.014;2023-05-14T07:32:29;96994.36;;;22.45;53.69
52653;BME280;39353;42.864;12.014;2023-05-14T07:34:56;96990.88;;;22.43;53.73
52653;BME280;39353;42.864;12.014;2023-05-14T07:37:24;96982.46;;;22.43;53.71
52653;BME280;39353;42.864;12.014;2023-05-14T07:39:52;96991.95;;;22.42;53.83
52653;BME280;39353;42.864;12.014;2023-05-14T07:42:19;96982.83;;;22.43;53.78
52653;BME280;39353;42.864;12.014;2023-05-14T07:44:45;96986.20;;;22.44;54.00
52653;BME280;39353;42.864;12.014;2023-05-14T07:47:12;96989.63;;;22.47;53.99
52653;BME280;39353;42.864;12.014;2023-05-14T07:49:39;96978.08;;;22.49;53.83
52653;BME280;39353;42.864;12.014;2023-05-14T07:52:06;96981.48;;;22.49;53.92
52653;BME280;39353;42.864;12.014;2023-05-14T07:54:33;96977.39;;;22.51;53.96
52653;BME280;39353;42.864;12.014;2023-05-14T07:57:01;96971.02;;;22.53;54.06
52653;BME280;39353;42.864;12.014;2023-05-14T07:59:30;96976.71;;;22.53;53.91
52653;BME280;39353;42.864;12.014;2023-05-14T08:01:57;96974.17;;;22.51;53.88
52653;BME280;39353;42.864;12.014;2023-05-14T08:04:26;96970.77;;;22.50;53.89
52653;BME280;39353;42.864;12.014;2023-05-14T08:06:53;96964.78;;;22.49;53.83
52653;BME280;39353;42.864;12.014;2023-05-14T08:09:21;96956.52;;;22.48;53.92
52653;BME280;39353;42.864;12.014;2023-05-14T08:11:49;96955.29;;;22.50;54.06
52653;BME280;39353;42.864;12.014;2023-05-14T08:14:17;96968.78;;;22.53;54.00
52653;BME280;39353;42.864;12.014;2023-05-14T08:20:03;96965.89;;;22.63;54.55
52653;BME280;39353;42.864;12.014;2023-05-14T08:26:07;96975.34;;;22.71;55.78
52653;BME280;39353;42.864;12.014;2023-05-14T08:28:34;96972.70;;;22.74;55.91
52653;BME280;39353;42.864;12.014;2023-05-14T08:31:01;96975.58;;;22.80;55.90
52653;BME280;39353;42.864;12.014;2023-05-14T08:33:28;96981.41;;;22.86;56.83
52653;BME280;39353;42.864;12.014;2023-05-14T08:35:56;96989.17;;;22.89;56.38
52653;BME280;39353;42.864;12.014;2023-05-14T08:38:26;96988.26;;;22.95;57.18
52653;BME280;39353;42.864;12.014;2023-05-14T08:40:57;96987.27;;;22.99;57.18
52653;BME280;39353;42.864;12.014;2023-05-14T08:43:29;96982.61;;;23.02;57.50
52653;BME280;39353;42.864;12.014;2023-05-14T08:46:00;96986.41;;;23.04;57.12
52653;BME280;39353;42.864;12.014;2023-05-14T08:48:31;96987.05;;;23.07;57.75
52653;BME280;39353;42.864;12.014;2023-05-14T08:51:00;96987.14;;;23.10;56.70
52653;BME280;39353;42.864;12.014;2023-05-14T08:53:29;96988.57;;;23.14;57.25
52653;BME280;39353;42.864;12.014;2023-05-14T08:56:00;96987.45;;;23.16;58.41
52653;BME280;39353;42.864;12.014;2023-05-14T08:58:28;96984.56;;;23.18;59.10
52653;BME280;39353;42.864;12.014;2023-05-14T09:00:56;96982.20;;;23.17;59.31
52653;BME280;39353;42.864;12.014;2023-05-14T09:03:23;96977.79;;;23.14;58.46
52653;BME280;39353;42.864;12.014;2023-05-14T09:05:51;96971.27;;;23.10;57.75
52653;BME280;39353;42.864;12.014;2023-05-14T09:08:19;96970.07;;;23.06;57.20
52653;BME280;39353;42.864;12.014;2023-05-14T09:10:46;96967.98;;;23.01;56.81
52653;BME280;39353;42.864;12.014;2023-05-14T09:13:13;96970.94;;;22.97;56.83
52653;BME280;39353;42.864;12.014;2023-05-14T09:15:41;96969.36;;;22.93;56.67
52653;BME280;39353;42.864;12.014;2023-05-14T09:18:08;96966.58;;;22.89;56.54
52653;BME280;39353;42.864;12.014;2023-05-14T09:20:37;96974.55;;;22.88;56.56
52653;BME280;39353;42.864;12.014;2023-05-14T09:23:10;96971.48;;;22.87;56.33
52653;BME280;39353;42.864;12.014;2023-05-14T09:25:38;96971.10;;;22.88;56.03
52653;BME280;39353;42.864;12.014;2023-05-14T09:28:07;96967.38;;;22.88;55.91
52653;BME280;39353;42.864;12.014;2023-05-14T09:30:35;96969.72;;;22.87;55.90
52653;BME280;39353;42.864;12.014;2023-05-14T09:33:03;96970.78;;;22.85;55.79
52653;BME280;39353;42.864;12.014;2023-05-14T09:35:30;96961.79;;;22.83;55.35
52653;BME280;39353;42.864;12.014;2023-05-14T09:37:58;96956.42;;;22.80;55.53
52653;BME280;39353;42.864;12.014;2023-05-14T09:40:25;96961.45;;;22.80;55.39
52653;BME280;39353;42.864;12.014;2023-05-14T09:42:53;96967.84;;;22.78;55.56
52653;BME280;39353;42.864;12.014;2023-05-14T09:45:19;96961.30;;;22.76;55.25
52653;BME280;39353;42.864;12.014;2023-05-14T09:47:46;96960.45;;;22.73;55.34
52653;BME280;39353;42.864;12.014;2023-05-14T09:50:15;96954.30;;;22.72;55.25
52653;BME280;39353;42.864;12.014;2023-05-14T09:52:42;96960.08;;;22.71;55.23
52653;BME280;39353;42.864;12.014;2023-05-14T09:55:12;96960.27;;;22.70;55.23
52653;BME280;39353;42.864;12.014;2023-05-14T09:57:40;96959.39;;;22.69;55.28
52653;BME280;39353;42.864;12.014;2023-05-14T10:00:10;96955.19;;;22.69;55.29
52653;BME280;39353;42.864;12.014;2023-05-14T10:02:45;96958.08;;;22.69;55.05
52653;BME280;39353;42.864;12.014;2023-05-14T10:05:13;96955.26;;;22.67;55.09
52653;BME280;39353;42.864;12.014;2023-05-14T10:07:46;96962.25;;;22.66;54.91
52653;BME280;39353;42.864;12.014;2023-05-14T10:10:20;96954.36;;;22.66;54.87
52653;BME280;39353;42.864;12.014;2023-05-14T10:12:56;96952.00;;;22.65;55.07
52653;BME280;39353;42.864;12.014;2023-05-14T10:15:39;96954.69;;;22.65;54.98
52653;BME280;39353;42.864;12.014;2023-05-14T10:18:11;96955.41;;;22.66;54.87
52653;BME280;39353;42.864;12.014;2023-05-14T10:20:39;96951.48;;;22.66;54.85
52653;BME280;39353;42.864;12.014;2023-05-14T10:23:08;96959.55;;;22.65;54.90
52653;BME280;39353;42.864;12.014;2023-05-14T10:25:36;96957.63;;;22.65;54.81
52653;BME280;39353;42.864;12.014;2023-05-14T10:28:05;96958.19;;;22.64;54.84
52653;BME280;39353;42.864;12.014;2023-05-14T10:30:32;96955.31;;;22.62;54.63
52653;BME280;39353;42.864;12.014;2023-05-14T10:33:10;96959.66;;;22.64;54.42
52653;BME280;39353;42.864;12.014;2023-05-14T10:35:58;96960.42;;;22.64;54.63
52653;BME280;39353;42.864;12.014;2023-05-14T10:38:29;96953.42;;;22.64;54.36
52653;BME280;39353;42.864;12.014;2023-05-14T10:41:09;96955.12;;;22.64;54.43
52653;BME280;39353;42.864;12.014;2023-05-14T10:43:40;96951.73;;;22.64;53.77
52653;BME280;39353;42.864;12.014;2023-05-14T10:46:12;96950.02;;;22.62;54.24
52653;BME280;39353;42.864;12.014;2023-05-14T10:48:43;96951.44;;;22.67;54.29
52653;BME280;39353;42.864;12.014;2023-05-14T10:51:11;96944.48;;;22.75;54.51
52653;BME280;39353;42.864;12.014;2023-05-14T10:53:44;96945.33;;;22.83;54.75
52653;BME280;39353;42.864;12.014;2023-05-14T10:56:13;96947.81;;;22.90;55.17
52653;BME280;39353;42.864;12.014;2023-05-14T10:58:43;96943.59;;;22.98;55.94
52653;BME280;39353;42.864;12.014;2023-05-14T11:01:12;96943.74;;;23.05;56.07
52653;BME280;39353;42.864;12.014;2023-05-14T11:03:45;96935.79;;;23.12;57.00
52653;BME280;39353;42.864;12.014;2023-05-14T11:06:14;96928.45;;;23.16;58.15
52653;BME280;39353;42.864;12.014;2023-05-14T11:08:42;96925.86;;;23.20;58.76
52653;BME280;39353;42.864;12.014;2023-05-14T11:11:11;96921.67;;;23.24;59.17
52653;BME280;39353;42.864;12.014;2023-05-14T11:13:40;96917.56;;;23.29;59.20
52653;BME280;39353;42.864;12.014;2023-05-14T11:16:09;96911.60;;;23.34;59.67
52653;BME280;39353;42.864;12.014;2023-05-14T11:18:36;96915.67;;;23.41;60.20
52653;BME280;39353;42.864;12.014;2023-05-14T11:21:04;96907.92;;;23.42;60.88
52653;BME280;39353;42.864;12.014;2023-05-14T11:23:31;96904.65;;;23.43;61.05
52653;BME280;39353;42.864;12.014;2023-05-14T11:26:00;96908.70;;;23.43;61.13
52653;BME280;39353;42.864;12.014;2023-05-14T11:28:27;96902.26;;;23.45;61.15
52653;BME280;39353;42.864;12.014;2023-05-14T11:30:55;96906.15;;;23.47;61.16
52653;BME280;39353;42.864;12.014;2023-05-14T11:33:22;96909.35;;;23.49;61.53
52653;BME280;39353;42.864;12.014;2023-05-14T11:35:50;96905.95;;;23.50;61.26
52653;BME280;39353;42.864;12.014;2023-05-14T11:38:19;96905.89;;;23.48;60.99
52653;BME280;39353;42.864;12.014;2023-05-14T11:40:55;96898.95;;;23.43;60.05
52653;BME280;39353;42.864;12.014;2023-05-14T11:43:23;96893.44;;;23.40;60.18
52653;BME280;39353;42.864;12.014;2023-05-14T11:45:52;96889.66;;;23.36;59.89
52653;BME280;39353;42.864;12.014;2023-05-14T11:48:20;96891.94;;;23.33;59.78
52653;BME280;39353;42.864;12.014;2023-05-14T11:50:51;96890.30;;;23.28;58.51
52653;BME280;39353;42.864;12.014;2023-05-14T11:53:28;96884.72;;;23.24;58.50
52653;BME280;39353;42.864;12.014;2023-05-14T11:55:56;96881.67;;;23.25;58.50
52653;BME280;39353;42.864;12.014;2023-05-14T11:58:24;96876.96;;;23.25;58.77
52653;BME280;39353;42.864;12.014;2023-05-14T12:00:54;96872.26;;;23.22;58.65
52653;BME280;39353;42.864;12.014;2023-05-14T12:03:21;96874.09;;;23.20;58.49
52653;BME280;39353;42.864;12.014;2023-05-14T12:05:58;96873.52;;;23.18;58.50
52653;BME280;39353;42.864;12.014;2023-05-14T12:08:29;96870.00;;;23.17;58.35
52653;BME280;39353;42.864;12.014;2023-05-14T12:10:58;96866.86;;;23.14;58.03
52653;BME280;39353;42.864;12.014;2023-05-14T12:13:29;96874.63;;;23.10;57.96
52653;BME280;39353;42.864;12.014;2023-05-14T12:16:01;96879.05;;;23.09;57.99
52653;BME280;39353;42.864;12.014;2023-05-14T12:18:29;96874.17;;;23.09;58.00
52653;BME280;39353;42.864;12.014;2023-05-14T12:21:04;96871.72;;;23.10;58.13
52653;BME280;39353;42.864;12.014;2023-05-14T12:23:33;96869.98;;;23.10;58.07
52653;BME280;39353;42.864;12.014;2023-05-14T12:26:02;96869.67;;;23.11;57.93
52653;BME280;39353;42.864;12.014;2023-05-14T12:28:34;96879.52;;;23.11;57.78
52653;BME280;39353;42.864;12.014;2023-05-14T12:31:06;96883.52;;;23.11;57.51
52653;BME280;39353;42.864;12.014;2023-05-14T12:33:34;96884.01;;;23.11;57.25
52653;BME280;39353;42.864;12.014;2023-05-14T12:36:01;96889.27;;;23.13;57.32
52653;BME280;39353;42.864;12.014;2023-05-14T12:38:30;96893.45;;;23.14;56.96
52653;BME280;39353;42.864;12.014;2023-05-14T12:40:58;96908.50;;;23.13;57.01
52653;BME280;39353;42.864;12.014;2023-05-14T12:43:25;96915.63;;;23.15;57.04
52653;BME280;39353;42.864;12.014;2023-05-14T12:45:57;96911.81;;;23.16;56.79
52653;BME280;39353;42.864;12.014;2023-05-14T12:48:24;96907.44;;;23.16;56.71
52653;BME280;39353;42.864;12.014;2023-05-14T12:50:51;96897.53;;;23.17;56.70
52653;BME280;39353;42.864;12.014;2023-05-14T12:53:19;96895.23;;;23.17;56.85
52653;BME280;39353;42.864;12.014;2023-05-14T12:55:46;96896.59;;;23.17;56.86
52653;BME280;39353;42.864;12.014;2023-05-14T12:58:13;96900.88;;;23.18;56.72
52653;BME280;39353;42.864;12.014;2023-05-14T13:00:41;96903.84;;;23.18;56.58
52653;BME280;39353;42.864;12.014;2023-05-14T13:03:09;96907.00;;;23.18;56.55
52653;BME280;39353;42.864;12.014;2023-05-14T13:05:36;96906.36;;;23.19;56.39
52653;BME280;39353;42.864;12.014;2023-05-14T13:08:04;96896.89;;;23.19;56.29
52653;BME280;39353;42.864;12.014;2023-05-14T13:10:31;96892.40;;;23.19;56.17
52653;BME280;39353;42.864;12.014;2023-05-14T13:12:58;96894.10;;;23.20;55.89
52653;BME280;39353;42.864;12.014;2023-05-14T13:15:25;96895.36;;;23.20;55.86
52653;BME280;39353;42.864;12.014;2023-05-14T13:17:52;96895.88;;;23.21;55.89
52653;BME280;39353;42.864;12.014;2023-05-14T13:20:19;96892.98;;;23.21;55.79
52653;BME280;39353;42.864;12.014;2023-05-14T13:22:46;96895.79;;;23.22;55.74
52653;BME280;39353;42.864;12.014;2023-05-14T13:25:13;96900.13;;;23.21;55.59
52653;BME280;39353;42.864;12.014;2023-05-14T13:27:41;96900.52;;;23.20;55.67
52653;BME280;39353;42.864;12.014;2023-05-14T13:30:08;96895.08;;;23.22;55.33
52653;BME280;39353;42.864;12.014;2023-05-14T13:32:36;96893.95;;;23.22;55.34
52653;BME280;39353;42.864;12.014;2023-05-14T13:35:05;96895.72;;;23.23;55.43
52653;BME280;39353;42.864;12.014;2023-05-14T13:37:33;96900.45;;;23.26;55.31
52653;BME280;39353;42.864;12.014;2023-05-14T13:40:03;96899.77;;;23.28;55.50
52653;BME280;39353;42.864;12.014;2023-05-14T13:42:30;96898.58;;;23.29;55.32
52653;BME280;39353;42.864;12.014;2023-05-14T13:44:58;96903.95;;;23.31;55.19
52653;BME280;39353;42.864;12.014;2023-05-14T13:47:25;96900.36;;;23.33;55.28
52653;BME280;39353;42.864;12.014;2023-05-14T13:49:52;96899.27;;;23.32;55.13
52653;BME280;39353;42.864;12.014;2023-05-14T13:52:19;96898.02;;;23.33;55.19
52653;BME280;39353;42.864;12.014;2023-05-14T13:54:47;96898.63;;;23.34;55.05
52653;BME280;39353;42.864;12.014;2023-05-14T13:57:15;96901.87;;;23.34;55.08